Time;durP1;ratioP1;P1;durP2;ratioP2;P2;SDS_P1;SDS_P2;PMS_P1;PMS_P2;Temp;Humidity;BMP_temperature;BMP_pressure;BME280_temperature;BME280_humidity;BME280_pressure;Samples;Min_cycle;Max_cycle;Signal;HPM_P1;HPM_P2
2024/02/04 00:00:25;;;;;;;1.70;1.30;;;;;;;9.09;100.00;100272.33;181659;1251;44053;-83
2024/02/04 00:04:48;;;;;;;4.00;1.40;;;;;;;9.01;100.00;100285.83;181830;1252;43829;-83
2024/02/04 00:08:52;;;;;;;3.00;0.90;;;;;;;8.90;100.00;100286.27;181877;1253;59353;-84
2024/02/04 00:12:55;;;;;;;1.40;0.90;;;;;;;8.83;100.00;100282.41;181905;1251;43818;-84
2024/02/04 00:16:59;;;;;;;0.80;0.80;;;;;;;8.75;100.00;100285.77;181742;1252;43891;-83
2024/02/04 00:21:02;;;;;;;0.90;0.80;;;;;;;8.77;100.00;100282.11;181831;1253;44071;-84
2024/02/04 00:25:06;;;;;;;3.00;0.70;;;;;;;8.76;100.00;100277.95;181885;1253;44156;-84
2024/02/04 00:29:09;;;;;;;1.10;0.90;;;;;;;8.79;100.00;100272.27;181835;1252;58831;-83
2024/02/04 00:33:12;;;;;;;0.70;0.70;;;;;;;8.78;100.00;100272.84;181937;1252;44272;-84
2024/02/04 00:37:15;;;;;;;3.70;2.20;;;;;;;8.77;100.00;100285.50;181948;1253;43783;-84
2024/02/04 00:41:18;;;;;;;5.10;2.20;;;;;;;8.63;100.00;100282.77;181962;1251;44252;-85
2024/02/04 00:45:22;;;;;;;2.90;2.00;;;;;;;8.55;100.00;100272.23;181955;1251;43790;-84
2024/02/04 00:49:26;;;;;;;2.90;2.30;;;;;;;8.56;100.00;100272.16;181571;1252;58219;-84
2024/02/04 00:53:33;;;;;;;2.80;1.90;;;;;;;8.57;100.00;100271.00;181630;1253;44469;-84
2024/02/04 00:57:37;;;;;;;2.50;1.60;;;;;;;8.69;100.00;100275.64;181979;1251;43810;-84
2024/02/04 01:01:40;;;;;;;3.60;1.50;;;;;;;8.75;100.00;100283.13;181930;1253;43930;-84
2024/02/04 01:05:44;;;;;;;2.50;2.30;;;;;;;8.81;100.00;100282.38;181685;1253;44119;-84
2024/02/04 01:09:47;;;;;;;2.10;1.40;;;;;;;8.80;100.00;100285.77;181696;1253;58099;-85
2024/02/04 01:13:50;;;;;;;2.00;1.80;;;;;;;8.74;100.00;100280.72;181943;1252;44204;-84
2024/02/04 01:17:53;;;;;;;6.50;2.30;;;;;;;8.73;100.00;100271.45;181788;1253;44282;-83
2024/02/04 01:21:58;;;;;;;2.40;1.40;;;;;;;8.70;100.00;100260.31;181812;1252;43933;-84
2024/02/04 01:26:01;;;;;;;3.00;1.10;;;;;;;8.72;100.00;100258.09;181685;1253;44170;-83
2024/02/04 01:30:05;;;;;;;1.70;1.50;;;;;;;8.69;100.00;100254.19;181938;1252;59082;-83
2024/02/04 01:34:08;;;;;;;3.20;1.50;;;;;;;8.74;100.00;100248.55;181861;1253;44046;-84
2024/02/04 01:38:11;;;;;;;2.40;2.20;;;;;;;8.75;100.00;100248.70;181882;1253;43880;-84
2024/02/04 01:42:14;;;;;;;3.30;1.60;;;;;;;8.83;100.00;100250.35;181788;1253;44117;-84
2024/02/04 01:46:17;;;;;;;1.90;1.80;;;;;;;8.83;100.00;100246.98;181850;1253;44014;-83
2024/02/04 01:50:22;;;;;;;4.00;3.10;;;;;;;8.92;100.00;100245.45;181808;1253;57998;-84
2024/02/04 01:54:25;;;;;;;3.00;2.80;;;;;;;8.97;100.00;100239.36;181743;1253;43839;-84
2024/02/04 01:58:28;;;;;;;4.30;3.00;;;;;;;9.06;100.00;100229.38;181725;1253;44214;-83
2024/02/04 02:02:34;;;;;;;2.30;2.10;;;;;;;9.05;100.00;100238.11;181868;1253;44019;-84
2024/02/04 02:06:41;;;;;;;2.90;2.00;;;;;;;9.05;100.00;100247.83;181759;1253;44116;-83
2024/02/04 02:10:48;;;;;;;29.70;8.50;;;;;;;9.03;100.00;100261.42;181576;1253;58329;-83
2024/02/04 02:15:03;;;;;;;15.50;5.10;;;;;;;8.93;100.00;100273.83;181574;1253;44169;-85
2024/02/04 02:19:33;;;;;;;10.80;5.10;;;;;;;8.76;100.00;100280.92;181753;1253;44095;-84
2024/02/04 02:24:18;;;;;;;1.80;1.50;;;;;;;8.61;100.00;100251.10;181904;1253;44145;-84
2024/02/04 02:28:21;;;;;;;4.40;2.30;;;;;;;8.52;100.00;100237.45;180877;1260;44121;-85
2024/02/04 02:32:25;;;;;;;2.60;1.70;;;;;;;8.56;100.00;100221.23;180887;1260;57887;-85
2024/02/04 02:36:33;;;;;;;2.10;1.60;;;;;;;8.61;100.00;100219.11;180976;1260;44048;-84
2024/02/04 02:40:45;;;;;;;5.20;2.00;;;;;;;8.67;100.00;100232.13;180900;1260;44180;-84
2024/02/04 02:44:49;;;;;;;3.50;2.20;;;;;;;8.77;100.00;100230.70;180835;1260;43793;-85
2024/02/04 02:48:53;;;;;;;1.80;1.20;;;;;;;8.78;100.00;100244.90;180970;1260;44108;-85
2024/02/04 02:52:56;;;;;;;3.10;1.00;;;;;;;8.76;100.00;100239.25;180936;1260;57971;-84
2024/02/04 02:56:59;;;;;;;3.50;1.40;;;;;;;8.69;100.00;100235.70;180892;1260;43898;-83
2024/02/04 03:01:02;;;;;;;1.30;0.80;;;;;;;8.56;100.00;100238.90;180898;1262;44004;-84
2024/02/04 03:05:06;;;;;;;2.60;1.60;;;;;;;8.47;100.00;100238.13;181689;1253;44210;-84
2024/02/04 03:09:10;;;;;;;2.70;0.90;;;;;;;8.36;100.00;100227.98;181965;1253;43872;-83
2024/02/04 03:13:13;;;;;;;3.00;1.00;;;;;;;8.21;100.00;100237.56;181844;1253;58260;-84
2024/02/04 03:17:20;;;;;;;1.00;0.60;;;;;;;8.05;100.00;100228.61;181858;1253;43927;-82
2024/02/04 03:21:24;;;;;;;2.60;0.90;;;;;;;8.06;100.00;100237.52;181766;1253;44287;-83
2024/02/04 03:25:29;;;;;;;1.80;1.60;;;;;;;7.96;100.00;100231.70;181619;1253;44009;-84
2024/02/04 03:29:32;;;;;;;1.60;1.00;;;;;;;7.89;100.00;100230.67;181697;1253;164478;-82
2024/02/04 03:33:35;;;;;;;1.60;1.40;;;;;;;7.90;100.00;100241.21;181929;1252;59536;-83
2024/02/04 03:37:38;;;;;;;3.70;1.30;;;;;;;7.82;100.00;100243.63;181663;1252;44054;-83
2024/02/04 03:41:41;;;;;;;6.50;1.90;;;;;;;7.90;100.00;100240.98;181817;1252;43877;-83
2024/02/04 03:45:45;;;;;;;6.50;2.70;;;;;;;8.01;100.00;100239.11;181707;1253;43975;-83
2024/02/04 03:49:48;;;;;;;2.70;1.70;;;;;;;8.12;100.00;100242.23;182006;1251;44135;-83
2024/02/04 03:53:52;;;;;;;2.20;1.60;;;;;;;8.14;100.00;100227.80;181975;1253;59166;-83
2024/02/04 03:57:57;;;;;;;1.70;1.30;;;;;;;8.08;100.00;100241.30;181951;1252;44160;-84
2024/02/04 04:02:00;;;;;;;3.20;1.50;;;;;;;8.04;100.00;100255.53;181955;1253;44004;-83
2024/02/04 04:06:03;;;;;;;1.50;1.40;;;;;;;8.02;100.00;100249.11;181729;1252;43899;-84
2024/02/04 04:10:07;;;;;;;3.30;1.80;;;;;;;7.98;100.00;100245.58;181629;1252;44082;-84
2024/02/04 04:14:10;;;;;;;4.30;0.90;;;;;;;7.89;100.00;100236.63;181709;1254;59049;-83
2024/02/04 04:18:13;;;;;;;3.80;1.80;;;;;;;7.76;100.00;100235.96;181832;1253;44236;-84
2024/02/04 04:22:16;;;;;;;5.40;2.20;;;;;;;7.75;100.00;100247.34;181833;1251;43890;-83
2024/02/04 04:26:20;;;;;;;2.60;1.20;;;;;;;7.73;100.00;100244.46;181803;1253;44063;-84
2024/02/04 04:30:23;;;;;;;3.80;2.00;;;;;;;7.69;100.00;100261.33;181700;1252;44020;-84
2024/02/04 04:34:26;;;;;;;2.30;1.60;;;;;;;7.67;100.00;100261.11;181944;1253;58249;-84
2024/02/04 04:38:29;;;;;;;2.30;1.50;;;;;;;7.60;100.00;100253.48;181932;1253;44118;-83
2024/02/04 04:42:33;;;;;;;1.80;1.60;;;;;;;7.58;100.00;100257.14;181815;1253;44102;-83
2024/02/04 04:46:39;;;;;;;4.00;2.60;;;;;;;7.51;100.00;100250.92;181722;1253;44006;-83
2024/02/04 04:50:43;;;;;;;5.50;1.40;;;;;;;7.47;100.00;100263.04;181684;1253;44256;-83
2024/02/04 04:54:48;;;;;;;9.20;1.80;;;;;;;7.45;100.00;100261.91;181777;1253;58084;-82
2024/02/04 04:58:51;;;;;;;9.10;1.40;;;;;;;7.39;100.00;100254.59;181763;1253;44093;-83
2024/02/04 05:02:54;;;;;;;1.90;1.40;;;;;;;7.36;100.00;100251.43;181800;1252;43861;-83
2024/02/04 05:06:57;;;;;;;2.10;1.50;;;;;;;7.34;100.00;100252.83;181690;1252;43800;-84
2024/02/04 05:11:01;;;;;;;8.60;2.00;;;;;;;7.29;100.00;100261.09;181581;1252;43772;-84
2024/02/04 05:15:05;;;;;;;1.90;1.10;;;;;;;7.20;100.00;100262.56;181570;1253;58210;-84
2024/02/04 05:19:08;;;;;;;4.40;1.80;;;;;;;7.11;100.00;100264.92;181672;1253;43882;-83
2024/02/04 05:23:12;;;;;;;5.80;2.30;;;;;;;7.06;100.00;100255.95;181929;1254;44034;-83
2024/02/04 05:27:15;;;;;;;7.00;2.20;;;;;;;6.98;100.00;100253.80;181715;1253;44216;-83
2024/02/04 05:31:18;;;;;;;3.40;1.90;;;;;;;6.89;100.00;100258.12;181676;1252;44251;-84
2024/02/04 05:35:21;;;;;;;1.60;1.10;;;;;;;6.88;100.00;100262.60;181740;1254;57955;-85
2024/02/04 05:39:25;;;;;;;2.30;1.70;;;;;;;6.99;100.00;100283.02;181776;1253;44193;-84
2024/02/04 05:43:28;;;;;;;21.90;12.00;;;;;;;7.10;100.00;100274.22;181969;1252;43948;-84
2024/02/04 05:47:31;;;;;;;2.20;1.60;;;;;;;7.10;100.00;100282.27;181685;1254;44241;-84
2024/02/04 05:51:41;;;;;;;5.50;2.70;;;;;;;7.08;100.00;100277.28;181946;1252;44349;-84
2024/02/04 05:55:44;;;;;;;9.40;2.10;;;;;;;7.02;100.00;100279.86;181662;1253;58273;-84
2024/02/04 05:59:48;;;;;;;3.90;0.90;;;;;;;7.00;100.00;100261.29;181881;1252;44289;-83
2024/02/04 06:03:51;;;;;;;3.80;1.70;;;;;;;6.95;100.00;100256.66;181746;1256;44143;-84
2024/02/04 06:07:54;;;;;;;4.40;1.20;;;;;;;6.86;100.00;100242.98;181727;1253;45610;-84
2024/02/04 06:11:57;;;;;;;1.60;1.20;;;;;;;6.76;100.00;100250.52;181775;1253;44187;-83
2024/02/04 06:16:01;;;;;;;2.00;1.20;;;;;;;6.69;100.00;100248.84;181686;1253;59281;-84
2024/02/04 06:20:05;;;;;;;9.50;3.00;;;;;;;6.66;100.00;100243.05;181830;1252;44433;-83
2024/02/04 06:24:08;;;;;;;3.60;2.10;;;;;;;6.56;100.00;100249.48;181851;1252;43872;-83
2024/02/04 06:28:11;;;;;;;3.30;2.00;;;;;;;6.56;100.00;100255.88;181772;1253;43802;-84
2024/02/04 06:32:15;;;;;;;11.10;3.80;;;;;;;6.61;100.00;100262.28;181908;1253;44249;-83
2024/02/04 06:36:18;;;;;;;10.30;2.10;;;;;;;6.63;100.00;100257.71;181877;1253;59566;-83
2024/02/04 06:40:21;;;;;;;5.70;3.60;;;;;;;6.73;100.00;100262.01;181718;1253;43977;-84
2024/02/04 06:44:25;;;;;;;5.90;2.40;;;;;;;6.80;100.00;100258.02;181801;1253;43888;-83
2024/02/04 06:48:28;;;;;;;5.80;2.40;;;;;;;6.75;100.00;100258.31;181906;1253;43914;-84
2024/02/04 06:52:31;;;;;;;3.20;2.40;;;;;;;6.77;100.00;100257.16;181679;1253;44187;-83
2024/02/04 06:56:36;;;;;;;5.20;3.20;;;;;;;6.72;100.00;100253.55;181671;1253;57634;-83
2024/02/04 07:00:39;;;;;;;7.10;1.70;;;;;;;6.71;100.00;100250.33;181751;1253;43886;-82
2024/02/04 07:04:43;;;;;;;11.00;3.10;;;;;;;6.72;100.00;100246.20;181672;1253;44007;-83
2024/02/04 07:08:46;;;;;;;7.60;4.30;;;;;;;6.72;100.00;100242.99;181669;1253;44075;-83
2024/02/04 07:12:49;;;;;;;6.70;2.60;;;;;;;6.75;100.00;100236.64;181581;1253;44121;-82
2024/02/04 07:16:52;;;;;;;3.90;2.90;;;;;;;6.81;100.00;100236.27;181810;1253;57866;-83
2024/02/04 07:20:56;;;;;;;3.30;2.40;;;;;;;6.87;100.00;100234.63;181684;1253;44026;-83
2024/02/04 07:24:59;;;;;;;5.00;2.20;;;;;;;6.94;100.00;100226.23;181701;1253;44090;-83
2024/02/04 07:29:02;;;;;;;7.60;2.00;;;;;;;7.04;100.00;100226.09;181575;1254;44323;-82
2024/02/04 07:33:06;;;;;;;7.00;2.60;;;;;;;7.10;100.00;100230.64;181622;1254;44143;-83
2024/02/04 07:37:09;;;;;;;5.80;1.90;;;;;;;7.13;100.00;100241.69;181924;1253;58413;-83
2024/02/04 07:41:15;;;;;;;3.40;1.50;;;;;;;7.38;100.00;100231.55;181674;1253;44284;-83
2024/02/04 07:45:18;;;;;;;3.00;1.80;;;;;;;7.41;100.00;100227.42;181642;1254;44246;-84
2024/02/04 07:49:21;;;;;;;6.40;1.40;;;;;;;7.49;100.00;100210.67;181827;1253;44145;-84
2024/02/04 07:53:24;;;;;;;1.90;1.20;;;;;;;7.60;100.00;100215.55;181636;1254;43721;-83
2024/02/04 07:57:28;;;;;;;2.10;1.20;;;;;;;7.72;100.00;100221.06;181877;1253;58270;-83
2024/02/04 08:01:31;;;;;;;2.40;1.80;;;;;;;7.85;100.00;100223.16;181885;1254;44141;-83
2024/02/04 08:05:37;;;;;;;3.70;1.50;;;;;;;7.89;100.00;100219.52;181810;1253;44115;-84
2024/02/04 08:09:40;;;;;;;5.20;2.20;;;;;;;7.94;100.00;100220.56;181929;1253;44088;-83
2024/02/04 08:13:44;;;;;;;9.10;2.50;;;;;;;8.00;100.00;100217.51;181861;1253;44221;-84
2024/02/04 08:17:47;;;;;;;3.10;1.30;;;;;;;8.11;100.00;100218.79;181711;1253;58436;-83
2024/02/04 08:21:50;;;;;;;5.50;2.10;;;;;;;8.10;100.00;100217.82;181799;1253;43938;-84
2024/02/04 08:25:53;;;;;;;4.40;2.00;;;;;;;8.29;100.00;100213.82;181811;1253;43949;-83
2024/02/04 08:29:56;;;;;;;3.40;2.40;;;;;;;8.43;100.00;100214.58;181777;1254;43866;-84
2024/02/04 08:34:00;;;;;;;4.10;1.30;;;;;;;8.42;99.96;100204.58;181698;1256;44120;-83
2024/02/04 08:38:03;;;;;;;4.70;2.50;;;;;;;8.48;100.00;100198.52;181688;1253;57985;-83
2024/02/04 08:42:06;;;;;;;5.80;1.30;;;;;;;8.60;100.00;100199.71;181695;1254;44229;-82
2024/02/04 08:46:09;;;;;;;5.80;1.90;;;;;;;8.54;100.00;100201.41;181569;1254;44236;-83
2024/02/04 08:50:16;;;;;;;;;;;;;;;8.45;100.00;100204.36;181636;1253;44239;-83
2024/02/04 08:54:20;;;;;;;3.80;1.90;;;;;;;8.52;100.00;100207.21;181661;1253;43578;-84
2024/02/04 08:58:23;;;;;;;2.90;1.60;;;;;;;8.54;100.00;100204.74;181797;1256;57939;-83
2024/02/04 09:02:26;;;;;;;8.70;3.30;;;;;;;8.59;100.00;100195.20;181802;1253;44041;-82
2024/02/04 09:06:29;;;;;;;6.60;2.80;;;;;;;8.73;100.00;100195.59;181753;1254;44228;-83
2024/02/04 09:10:33;;;;;;;5.10;3.50;;;;;;;8.88;100.00;100190.22;181877;1254;44350;-82
2024/02/04 09:14:36;;;;;;;3.00;2.70;;;;;;;8.98;100.00;100183.97;181894;1253;44096;-83
2024/02/04 09:18:39;;;;;;;9.60;3.50;;;;;;;8.98;100.00;100195.29;181734;1253;58969;-83
2024/02/04 09:22:42;;;;;;;4.60;2.10;;;;;;;8.98;100.00;100192.46;181681;1253;44141;-83
2024/02/04 09:26:46;;;;;;;6.00;3.10;;;;;;;9.00;100.00;100192.70;181612;1256;44007;-83
2024/02/04 09:30:49;;;;;;;4.90;3.50;;;;;;;9.12;100.00;100193.40;181533;1257;45529;-83
2024/02/04 09:34:52;;;;;;;3.80;2.80;;;;;;;9.22;100.00;100180.77;181795;1253;44018;-82
2024/02/04 09:38:56;;;;;;;7.40;3.00;;;;;;;9.28;100.00;100168.02;181725;1254;60666;-83
2024/02/04 09:42:59;;;;;;;5.80;3.90;;;;;;;9.52;100.00;100160.86;181612;1254;44346;-83
2024/02/04 09:47:03;;;;;;;6.50;3.00;;;;;;;9.75;100.00;100155.00;181774;1254;44296;-83
2024/02/04 09:51:06;;;;;;;4.20;3.00;;;;;;;9.87;100.00;100150.87;181805;1252;44082;-82
2024/02/04 09:55:10;;;;;;;15.00;3.00;;;;;;;9.85;100.00;100153.67;181804;1256;43833;-83
2024/02/04 09:59:14;;;;;;;6.00;5.00;;;;;;;9.78;100.00;100156.00;181665;1253;58250;-83
2024/02/04 10:03:17;;;;;;;12.20;4.50;;;;;;;9.76;100.00;100153.48;181894;1256;44080;-83
2024/02/04 10:07:21;;;;;;;7.80;4.20;;;;;;;9.69;100.00;100158.11;181705;1252;43989;-83
2024/02/04 10:11:24;;;;;;;5.20;4.60;;;;;;;9.68;100.00;100154.10;181801;1254;43818;-83
2024/02/04 10:15:31;;;;;;;13.70;4.10;;;;;;;9.75;100.00;100150.58;181776;1253;44035;-82
2024/02/04 10:19:34;;;;;;;8.00;6.10;;;;;;;9.87;100.00;100144.50;181753;1253;57518;-82
2024/02/04 10:23:38;;;;;;;8.40;5.10;;;;;;;9.97;100.00;100135.84;181880;1253;43887;-83
2024/02/04 10:27:41;;;;;;;7.50;4.70;;;;;;;10.08;100.00;100126.44;181682;1256;44287;-84
2024/02/04 10:31:45;;;;;;;8.80;6.20;;;;;;;10.18;100.00;100103.31;181626;1254;43977;-83
2024/02/04 10:35:48;;;;;;;10.30;6.10;;;;;;;10.26;100.00;100104.80;181717;1253;44174;-83
2024/02/04 10:39:51;;;;;;;9.30;5.70;;;;;;;10.36;100.00;100093.98;181863;1253;59509;-83
2024/02/04 10:43:55;;;;;;;8.40;4.70;;;;;;;10.47;100.00;100083.23;181743;1254;44054;-84
2024/02/04 10:48:01;;;;;;;15.00;4.00;;;;;;;10.54;100.00;100077.11;181712;1253;44220;-83
2024/02/04 10:52:07;;;;;;;9.00;4.90;;;;;;;10.57;100.00;100072.77;181688;1254;43742;-84
2024/02/04 10:56:21;;;;;;;12.00;4.70;;;;;;;10.54;100.00;100063.66;181665;1253;44116;-84
2024/02/04 11:00:26;;;;;;;7.50;5.50;;;;;;;10.62;100.00;100057.33;181740;1254;60072;-83
2024/02/04 11:04:30;;;;;;;8.10;5.10;;;;;;;10.71;100.00;100041.45;181651;1254;44093;-85
2024/02/04 11:08:34;;;;;;;4.70;4.30;;;;;;;10.82;100.00;100032.23;181840;1254;43989;-85
2024/02/04 11:12:40;;;;;;;4.40;4.00;;;;;;;10.91;100.00;100022.61;181697;1252;44200;-85
2024/02/04 11:17:14;;;;;;;3.60;3.30;;;;;;;10.96;100.00;100013.41;181828;1253;43754;-84
2024/02/04 11:21:37;;;;;;;4.20;3.70;;;;;;;10.91;100.00;100015.48;181875;1253;59267;-85
2024/02/04 11:25:52;;;;;;;6.40;3.80;;;;;;;10.92;100.00;100004.17;181835;1254;44272;-85
2024/02/04 11:29:59;;;;;;;7.00;5.30;;;;;;;10.85;100.00;100004.96;181774;1254;44126;-85
2024/02/04 11:34:04;;;;;;;3.60;3.00;;;;;;;10.78;100.00;100004.90;181855;1253;46400;-83
2024/02/04 11:38:08;;;;;;;3.40;2.60;;;;;;;10.74;100.00;99991.06;181626;1254;44254;-84
2024/02/04 11:42:16;;;;;;;4.80;3.00;;;;;;;10.73;100.00;99995.42;181744;1253;58247;-83
2024/02/04 11:46:19;;;;;;;4.40;3.40;;;;;;;10.84;100.00;99990.17;181638;1253;44297;-83
2024/02/04 11:50:29;;;;;;;6.10;4.00;;;;;;;10.95;100.00;99999.31;181814;1253;44009;-85
2024/02/04 11:54:33;;;;;;;8.60;3.30;;;;;;;10.91;100.00;99991.68;181843;1252;44165;-83
2024/02/04 11:58:37;;;;;;;2.20;2.00;;;;;;;10.93;100.00;99976.61;181641;1254;44264;-85
2024/02/04 12:02:42;;;;;;;4.10;3.40;;;;;;;11.10;100.00;99978.30;181617;1253;59525;-86
2024/02/04 12:06:47;;;;;;;3.90;3.30;;;;;;;11.13;100.00;99974.54;181854;1253;43788;-84
2024/02/04 12:10:51;;;;;;;4.10;3.00;;;;;;;11.11;100.00;99956.38;181687;1253;44026;-84
2024/02/04 12:14:54;;;;;;;2.50;2.10;;;;;;;11.15;100.00;99948.45;181690;1254;44325;-84
2024/02/04 12:18:58;;;;;;;3.30;2.20;;;;;;;11.22;100.00;99946.56;181492;1254;43921;-84
2024/02/04 12:23:04;;;;;;;3.50;2.60;;;;;;;11.26;100.00;99934.15;181638;1253;59795;-84
2024/02/04 12:27:07;;;;;;;3.60;2.20;;;;;;;11.10;100.00;99925.77;181576;1253;43786;-84
2024/02/04 12:31:20;;;;;;;2.70;1.80;;;;;;;11.16;100.00;99913.50;181794;1254;44139;-85
2024/02/04 12:35:25;;;;;;;4.40;2.20;;;;;;;11.21;99.86;99900.00;181905;1253;43803;-85
2024/02/04 12:39:32;;;;;;;2.30;1.60;;;;;;;11.09;100.00;99898.00;181562;1253;44206;-84
2024/02/04 12:43:36;;;;;;;3.90;2.10;;;;;;;11.18;100.00;99884.48;181673;1254;56958;-83
2024/02/04 12:47:39;;;;;;;2.40;2.10;;;;;;;11.19;100.00;99874.80;181643;1252;43872;-84
2024/02/04 12:51:42;;;;;;;2.70;2.30;;;;;;;11.21;100.00;99875.29;181862;1253;44003;-85
2024/02/04 12:55:46;;;;;;;3.70;2.10;;;;;;;11.19;100.00;99873.38;181833;1253;43683;-84
2024/02/04 12:59:49;;;;;;;3.70;1.80;;;;;;;11.07;100.00;99859.88;181680;1252;43845;-85
2024/02/04 13:03:55;;;;;;;3.40;2.30;;;;;;;11.01;100.00;99858.45;181870;1253;58203;-84
2024/02/04 13:08:02;;;;;;;2.40;2.20;;;;;;;10.98;100.00;99851.13;181603;1252;43922;-84
2024/02/04 13:12:08;;;;;;;6.40;2.30;;;;;;;10.95;100.00;99853.25;181703;1253;44195;-85
2024/02/04 13:16:12;;;;;;;2.00;1.80;;;;;;;10.89;100.00;99846.59;181714;1253;44169;-85
2024/02/04 13:20:15;;;;;;;2.50;1.60;;;;;;;10.82;100.00;99839.40;181652;1252;44054;-84
2024/02/04 13:24:19;;;;;;;3.40;2.40;;;;;;;10.79;100.00;99834.14;181761;1253;58447;-83
2024/02/04 13:28:23;;;;;;;3.80;2.20;;;;;;;10.82;100.00;99835.31;181719;1253;43753;-85
2024/02/04 13:32:26;;;;;;;2.00;1.60;;;;;;;10.69;100.00;99846.25;181715;1253;43887;-84
2024/02/04 13:36:30;;;;;;;3.40;1.60;;;;;;;10.59;100.00;99840.16;181696;1252;44363;-84
2024/02/04 13:40:34;;;;;;;2.60;1.90;;;;;;;10.68;100.00;99838.19;181608;1253;43857;-84
2024/02/04 13:44:37;;;;;;;3.20;2.10;;;;;;;10.77;100.00;99837.88;181536;1253;57799;-84
2024/02/04 13:48:40;;;;;;;4.00;2.10;;;;;;;10.79;100.00;99834.50;181604;1253;44965;-85
2024/02/04 13:52:43;;;;;;;4.90;1.90;;;;;;;10.77;100.00;99840.41;181685;1253;44182;-85
2024/02/04 13:56:47;;;;;;;4.00;2.60;;;;;;;10.62;100.00;99858.58;181675;1253;44135;-85
2024/02/04 14:00:50;;;;;;;4.60;4.00;;;;;;;10.68;100.00;99869.05;181692;1253;43928;-85
2024/02/04 14:04:54;;;;;;;2.50;2.00;;;;;;;10.36;100.00;99883.27;181654;1253;59606;-84
2024/02/04 14:08:57;;;;;;;1.60;0.90;;;;;;;10.00;100.00;99875.17;181734;1253;46815;-84
2024/02/04 14:13:00;;;;;;;3.70;1.30;;;;;;;9.89;100.00;99857.69;181638;1253;44727;-84
2024/02/04 14:17:04;;;;;;;2.70;1.50;;;;;;;9.77;100.00;99858.02;181814;1253;43871;-84
2024/02/04 14:21:09;;;;;;;1.40;1.20;;;;;;;9.73;100.00;99848.46;181954;1253;44012;-84
2024/02/04 14:25:12;;;;;;;4.60;1.70;;;;;;;9.77;100.00;99852.91;181753;1252;58050;-84
2024/02/04 14:29:15;;;;;;;1.50;1.20;;;;;;;9.83;100.00;99850.45;181816;1253;43853;-84
2024/02/04 14:33:19;;;;;;;4.20;1.60;;;;;;;9.87;100.00;99850.14;181751;1252;44040;-84
2024/02/04 14:37:22;;;;;;;1.60;1.10;;;;;;;9.86;100.00;99854.64;181770;1253;43915;-84
2024/02/04 14:41:26;;;;;;;2.00;1.00;;;;;;;10.00;100.00;99833.75;181866;1251;44008;-84
2024/02/04 14:45:30;;;;;;;3.70;1.50;;;;;;;10.00;99.96;99851.45;182023;1253;58224;-84
2024/02/04 14:49:33;;;;;;;3.60;1.50;;;;;;;10.00;96.35;99850.02;181938;1253;44283;-84
2024/02/04 14:53:37;;;;;;;6.20;2.50;;;;;;;9.98;92.50;99827.52;181825;1253;43844;-83
2024/02/04 14:57:40;;;;;;;1.10;0.90;;;;;;;10.00;91.38;99839.48;181762;1252;43825;-84
2024/02/04 15:01:47;;;;;;;2.70;1.20;;;;;;;9.93;92.30;99848.57;181819;1253;43746;-84
2024/02/04 15:05:51;;;;;;;5.40;1.50;;;;;;;9.83;92.26;99849.55;181661;1254;60031;-84
2024/02/04 15:09:54;;;;;;;3.50;1.40;;;;;;;9.88;91.86;99857.45;181692;1253;44213;-84
2024/02/04 15:13:58;;;;;;;2.80;2.60;;;;;;;9.89;91.21;99853.64;182039;1252;44006;-84
2024/02/04 15:18:02;;;;;;;3.30;1.20;;;;;;;9.89;92.47;99862.88;181921;1252;44257;-83
2024/02/04 15:22:05;;;;;;;3.30;2.10;;;;;;;9.85;92.63;99869.25;181964;1252;43799;-84
2024/02/04 15:26:13;;;;;;;4.10;1.60;;;;;;;9.81;93.51;99856.83;181561;1253;225299;-84
2024/02/04 15:30:20;;;;;;;3.00;1.90;;;;;;;9.75;93.31;99872.52;181607;1253;44083;-84
2024/02/04 15:34:23;;;;;;;3.30;1.90;;;;;;;9.77;93.56;99875.35;181847;1253;44183;-83
2024/02/04 15:38:28;;;;;;;2.10;1.50;;;;;;;9.73;93.44;99866.89;181710;1252;44188;-84
2024/02/04 15:42:31;;;;;;;6.10;2.90;;;;;;;9.73;93.73;99885.15;181898;1252;43695;-83
2024/02/04 15:46:36;;;;;;;7.20;1.70;;;;;;;9.75;93.57;99878.20;181706;1253;57916;-84
2024/02/04 15:50:40;;;;;;;3.30;2.00;;;;;;;9.67;93.84;99888.98;181706;1252;44024;-84
2024/02/04 15:54:43;;;;;;;6.50;2.40;;;;;;;9.65;95.22;99886.30;181764;1251;44401;-84
2024/02/04 15:58:49;;;;;;;5.30;1.90;;;;;;;9.57;95.25;99889.80;181729;1253;43927;-84
2024/02/04 16:02:53;;;;;;;1.20;1.10;;;;;;;9.60;94.17;99876.98;181559;1252;44145;-84
2024/02/04 16:06:57;;;;;;;6.20;2.40;;;;;;;9.60;94.12;99883.75;181600;1253;57975;-84
2024/02/04 16:11:16;;;;;;;2.20;1.60;;;;;;;9.59;93.78;99880.39;181578;1252;44175;-84
2024/02/04 16:15:23;;;;;;;4.30;2.80;;;;;;;9.63;92.68;99889.48;181738;1252;44169;-84
2024/02/04 16:19:26;;;;;;;;;;;;;;;9.59;92.52;99890.17;181847;1253;44331;-84
2024/02/04 16:23:29;;;;;;;2.80;1.90;;;;;;;9.58;91.19;99884.38;181807;1253;43901;-83
2024/02/04 16:27:32;;;;;;;5.50;2.60;;;;;;;9.54;91.63;99883.27;181955;1253;59214;-84
2024/02/04 16:31:35;;;;;;;3.60;1.70;;;;;;;9.54;91.55;99872.91;181844;1252;44023;-83
2024/02/04 16:35:38;;;;;;;6.60;3.20;;;;;;;9.55;91.05;99879.57;181707;1253;44291;-84
2024/02/04 16:39:43;;;;;;;3.30;1.40;;;;;;;9.46;91.61;99871.59;181702;1253;45329;-84
2024/02/04 16:43:47;;;;;;;3.30;2.10;;;;;;;9.52;89.44;99867.89;181743;1252;44144;-84
2024/02/04 16:47:50;;;;;;;1.70;1.60;;;;;;;9.46;89.02;99861.52;181679;1252;58655;-84
2024/02/04 16:51:54;;;;;;;3.80;2.00;;;;;;;9.53;86.92;99859.64;181683;1252;44130;-83
2024/02/04 16:55:57;;;;;;;6.20;2.70;;;;;;;9.57;87.47;99870.54;181624;1253;43854;-84
2024/02/04 17:00:01;;;;;;;3.60;1.90;;;;;;;9.50;87.93;99881.75;181709;1253;44006;-84
2024/02/04 17:04:05;;;;;;;2.90;2.00;;;;;;;9.42;89.65;99864.85;181612;1252;44166;-84
2024/02/04 17:08:10;;;;;;;11.60;3.30;;;;;;;9.38;89.95;99874.18;181700;1252;58216;-84
2024/02/04 17:12:14;;;;;;;9.10;2.40;;;;;;;9.33;90.83;99861.55;181794;1252;44085;-84
2024/02/04 17:16:28;;;;;;;8.70;3.70;;;;;;;9.25;93.06;99862.51;181557;1252;43964;-84
2024/02/04 17:20:41;;;;;;;6.00;2.40;;;;;;;9.18;93.43;99866.61;181781;1253;44014;-84
2024/02/04 17:24:54;;;;;;;9.80;2.20;;;;;;;9.18;94.12;99866.67;181583;1253;43947;-84
2024/02/04 17:28:58;;;;;;;5.80;2.90;;;;;;;9.14;95.66;99868.04;181785;1252;58315;-83
2024/02/04 17:33:01;;;;;;;5.40;2.50;;;;;;;9.16;96.94;99869.80;181810;1253;44178;-84
2024/02/04 17:37:06;;;;;;;5.90;2.00;;;;;;;9.10;96.71;99871.17;181859;1253;43917;-84
2024/02/04 17:41:10;;;;;;;4.20;1.70;;;;;;;9.12;95.42;99862.52;181597;1253;43789;-83
2024/02/04 17:45:13;;;;;;;3.30;1.20;;;;;;;9.15;93.89;99852.27;181681;1253;44115;-83
2024/02/04 17:49:17;;;;;;;2.50;1.80;;;;;;;9.15;93.88;99858.08;181564;1253;59621;-83
2024/02/04 17:53:20;;;;;;;3.00;1.90;;;;;;;9.13;93.39;99865.98;181519;1253;44138;-84
2024/02/04 17:57:24;;;;;;;2.70;1.70;;;;;;;9.17;92.91;99860.85;181559;1253;43853;-83
2024/02/04 18:01:27;;;;;;;5.10;1.60;;;;;;;9.13;93.81;99858.56;181589;1253;43938;-82
2024/02/04 18:05:31;;;;;;;4.70;2.80;;;;;;;9.18;93.97;99864.48;181617;1253;43878;-84
2024/02/04 18:09:38;;;;;;;3.30;1.80;;;;;;;9.21;94.50;99861.95;181667;1253;60076;-82
2024/02/04 18:13:41;;;;;;;3.70;2.00;;;;;;;9.28;95.41;99862.48;181803;1253;44101;-84
2024/02/04 18:17:47;;;;;;;1.80;1.50;;;;;;;9.29;94.79;99844.88;181900;1253;43860;-81
2024/02/04 18:21:51;;;;;;;16.40;2.30;;;;;;;9.28;95.23;99845.50;181867;1253;44134;-84
2024/02/04 18:25:54;;;;;;;4.80;1.90;;;;;;;9.35;94.19;99827.73;181892;1253;43979;-83
2024/02/04 18:29:57;;;;;;;4.00;2.60;;;;;;;9.28;93.79;99824.81;181562;1253;58254;-84
2024/02/04 18:34:00;;;;;;;2.40;1.70;;;;;;;9.31;92.85;99814.98;181844;1252;43851;-83
2024/02/04 18:38:04;;;;;;;5.00;2.40;;;;;;;9.35;93.05;99822.44;181841;1253;44111;-82
2024/02/04 18:42:07;;;;;;;3.60;2.00;;;;;;;9.40;93.27;99820.77;181720;1253;44245;-81
2024/02/04 18:46:10;;;;;;;2.80;1.80;;;;;;;9.36;93.44;99829.40;182009;1252;43797;-83